Buoy 41936

sailwx.info

Track history (hours):
 
Tides and Currents Weather Stations Pressure Air Temp Water Temp Dewpoint Dewpoint Depression Visibility Wind Speed Wind Dir Waves Ship Positions

Drifting buoy 41936

Last reported at 2014-Nov-24 02:00 UTC. Time now 2014-Nov-24 08:21 UTC.
Position N 29°46' W 064°06'.

Barometer 1026.4 mb
Water temperature 25.2 ° C

Date/timePositionNaut miles runAvg speedWind from/ knotsBaromVisibWave heightAir tempDewpointWater temp
2014-Nov-24 02:00N 29°46' W 064°06'0 0.0 1026.4 25.2
2014-Nov-24 01:00N 29°46' W 064°06'0 0.0 1026.1 25.2
2014-Nov-24 00:00N 29°46' W 064°06'3 3.0 1025.7 25.2
2014-Nov-23 23:00N 29°44' W 064°03'0 0.5 1025.4 25.2
2014-Nov-23 22:00N 29°44' W 064°02'0 0.0 1024.9 25.2
2014-Nov-23 21:00N 29°44' W 064°02'1 1.0 1024.7 25.2
2014-Nov-23 20:00N 29°44' W 064°01'0 0.0 1024.9 25.2
2014-Nov-23 19:00N 29°44' W 064°01'0 0.0 1025.1 25.2
2014-Nov-23 18:00N 29°44' W 064°01'1 0.3 1025.7 25.2
2014-Nov-23 15:00N 29°45' W 064°01'1 1.0 1027.2 25.2
2014-Nov-23 14:00N 29°45' W 064°02'0 0.0 1027.6 25.2
2014-Nov-23 13:00N 29°45' W 064°02'0 0.0 1027.3 25.2
2014-Nov-23 12:00N 29°45' W 064°02'0 0.0 1026.9 25.2
2014-Nov-23 11:00N 29°45' W 064°02'1 0.8 1026.4 25.2
2014-Nov-23 10:00N 29°44' W 064°01'0 0.0 1026.1 25.2
2014-Nov-23 09:00N 29°44' W 064°01'0 0.2 1025.3 25.2
2014-Nov-23 08:00N 29°44' W 064°01'2 1.7 1025.2 25.2
2014-Nov-23 07:00N 29°43' W 064°01'0 0.0 1025.5 25.2
2014-Nov-23 06:00N 29°43' W 064°01'1 0.3 1025.5 25.2
2014-Nov-23 02:00N 29°41' W 064°00'1 0.5 1026.7 25.3
2014-Nov-23 01:00N 29°41' W 063°59'2 1.1 1026.5 25.3
2014-Nov-22 23:00N 29°41' W 063°57'1 0.5 1025.9 25.3
2014-Nov-22 21:00N 29°41' W 063°56'0 0.0 1025.5 25.4
2014-Nov-22 20:00N 29°41' W 063°56'1 0.6 1025.2 25.4
2014-Nov-22 19:00N 29°41' W 063°56'0 0.0 1025.0 25.4
2014-Nov-22 17:00N 29°41' W 063°56'2 1.7 1025.3 25.4
2014-Nov-22 16:00N 29°42' W 063°54'2 1.7 1024.0 -0.1
2014-Nov-22 15:00N 29°43' W 063°56'1 1.0 1026.1 25.4
2014-Nov-22 14:00N 29°43' W 063°57'1 0.2 1026.1 25.4
2014-Nov-22 11:00N 29°42' W 063°57'1 0.8 1023.8 25.3
2014-Nov-22 10:00N 29°43' W 063°56'0 0.1 1023.4 25.4
2014-Nov-22 09:00N 29°42' W 063°56'0 0.1 1023.0 25.4
2014-Nov-22 08:00N 29°43' W 063°56'0 0.0 1022.7 25.4
2014-Nov-22 07:00N 29°43' W 063°56'0 0.0 1022.5 25.4
2014-Nov-22 06:00N 29°43' W 063°56'0 0.4 1022.4 25.4
2014-Nov-22 05:00N 29°42' W 063°57'2 0.5 1023.1 25.4
2014-Nov-22 02:00N 29°41' W 063°55'3 2.7 1023.1 25.4
2014-Nov-22 01:00N 29°42' W 063°52'1 0.3 1022.8 25.4
2014-Nov-21 21:00N 29°43' W 063°52'0 0.0 1021.5 25.5
2014-Nov-21 19:00N 29°43' W 063°52'1 0.6 1020.0 25.5
2014-Nov-21 17:00N 29°44' W 063°50'2 0.8 1020.5 25.5
2014-Nov-21 15:00N 29°45' W 063°51'0 0.2 1021.3 25.4
2014-Nov-21 14:00N 29°46' W 063°51'1 0.8 1021.2 25.4
2014-Nov-21 13:00N 29°46' W 063°52'1 0.4 1020.6 25.4
2014-Nov-21 10:00N 29°45' W 063°52'1 1.2 1018.8 25.4
2014-Nov-21 09:00N 29°46' W 063°52'2 1.6 1018.2 25.4
2014-Nov-21 08:00N 29°45' W 063°51'0 0.0 1018.5 25.4
2014-Nov-21 07:00N 29°45' W 063°51'0 0.0 1018.7 25.5
2014-Nov-21 06:00N 29°45' W 063°51'0 0.0 1019.0 25.5
2014-Nov-21 05:00N 29°45' W 063°51'1 0.6 1019.0 25.5
2014-Nov-21 03:00N 29°44' W 063°50'1 0.5 1019.5 25.5
2014-Nov-21 02:00N 29°44' W 063°50'1 1.2 1019.6 25.5
2014-Nov-21 01:00N 29°44' W 063°49'1 0.5 1019.7 25.5
2014-Nov-21 00:00N 29°44' W 063°50'1 1.3 1019.7 25.5
2014-Nov-20 23:00N 29°44' W 063°48'0 0.3 1019.0 25.5
2014-Nov-20 22:00N 29°44' W 063°49'1 0.8 1018.6 25.5
2014-Nov-20 21:00N 29°45' W 063°49'1 0.5 1018.6 25.5
2014-Nov-20 19:00N 29°45' W 063°48'0 0.0 1018.5 25.5
2014-Nov-20 18:00N 29°45' W 063°48'0 0.2 1019.0 25.5
2014-Nov-20 17:00N 29°45' W 063°48'0 0.2 1019.5 25.5
2014-Nov-20 15:00N 29°45' W 063°49'0 0.0 1021.1 25.5
2014-Nov-20 14:00N 29°45' W 063°49'0 0.0 1021.2 25.5
2014-Nov-20 13:00N 29°45' W 063°49'2 0.5 1020.4 25.5
2014-Nov-20 10:00N 29°44' W 063°50'1 0.6 1018.7 25.5
2014-Nov-20 09:00N 29°43' W 063°50'1 0.8 1018.1 25.5
2014-Nov-20 08:00N 29°43' W 063°49'0 0.0 1018.0 25.5
2014-Nov-20 06:00N 29°43' W 063°49'2 0.4 1019.1 25.5
2014-Nov-20 02:00N 29°42' W 063°47'0 0.2 1020.0 25.5
2014-Nov-20 01:00N 29°42' W 063°47'1 0.7 1019.8 25.5
2014-Nov-20 00:00N 29°43' W 063°47'0 0.2 1019.9 25.5
2014-Nov-19 23:00N 29°43' W 063°47'1 0.5 1019.8 25.5
2014-Nov-19 22:00N 29°43' W 063°47'1 0.8 1019.4 25.5
2014-Nov-19 21:00N 29°43' W 063°46'0 0.0 1019.2 25.5
2014-Nov-19 20:00N 29°43' W 063°46'1 0.3 1018.7 25.6
2014-Nov-19 18:00N 29°43' W 063°47'0 0.0 1018.6 25.6
2014-Nov-19 17:00N 29°43' W 063°47'1 0.3 1019.0 25.5
2014-Nov-19 15:00N 29°43' W 063°47'0 0.0 1020.7 25.5
2014-Nov-19 14:00N 29°43' W 063°47'1 1.0 1021.2 25.5
2014-Nov-19 13:00N 29°43' W 063°49'0 0.0 1020.6 25.5
2014-Nov-19 11:00N 29°43' W 063°49'1 1.0 1019.5 25.5
2014-Nov-19 10:00N 29°42' W 063°49'0 0.3 1019.2 25.5
2014-Nov-19 09:00N 29°42' W 063°49'1 0.8 1019.0 25.5
2014-Nov-19 08:00N 29°41' W 063°48'0 0.0 1018.7 25.5
2014-Nov-19 07:00N 29°41' W 063°48'0 0.0 1018.9 25.5
2014-Nov-19 06:00N 29°41' W 063°48'2 0.5 1018.6 25.5
2014-Nov-19 03:00N 29°41' W 063°46'0 0.0 1019.3 25.5
2014-Nov-19 02:00N 29°41' W 063°46'1 0.8 1019.5 25.5
2014-Nov-19 01:00N 29°42' W 063°47'1 0.2 1019.8 25.6
2014-Nov-18 22:00N 29°41' W 063°47'1 0.6 1019.4 25.6
2014-Nov-18 21:00N 29°42' W 063°47'1 0.3 1019.4 25.6
2014-Nov-18 18:00N 29°42' W 063°48'0 0.1 1020.5 25.6
2014-Nov-18 15:00N 29°41' W 063°47'2 2.5 1022.0 25.6
2014-Nov-18 14:00N 29°39' W 063°48'0 0.1 1022.4 25.6
2014-Nov-18 13:00N 29°39' W 063°48'0 0.0 1022.3 25.6
2014-Nov-18 11:00N 29°39' W 063°48'1 1.0 1021.4 25.5
2014-Nov-18 10:00N 29°39' W 063°47'1 0.8 1021.0 25.5
2014-Nov-18 09:00N 29°38' W 063°46'0 0.0 1020.9 25.6
2014-Nov-18 07:00N 29°38' W 063°46'0 0.0 1020.5 25.6
2014-Nov-18 06:00N 29°38' W 063°46'1 0.3 1020.6 25.6
2014-Nov-18 02:00N 29°39' W 063°45'0 0.1 1022.7 25.6
2014-Nov-18 01:00N 29°39' W 063°45'1 0.6 1022.9 25.6
2014-Nov-18 00:00N 29°40' W 063°45'1 0.3 1023.1 25.6
2014-Nov-17 22:00N 29°39' W 063°45'2 0.6 1022.4 25.6
2014-Nov-17 18:00N 29°37' W 063°44'1 0.2 1023.0 25.7
2014-Nov-17 15:00N 29°37' W 063°45'0 0.0 1025.0 25.6
2014-Nov-17 14:00N 29°37' W 063°45'2 0.4 1025.3 25.6
2014-Nov-17 10:00N 29°36' W 063°43'1 0.5 1024.4 25.6
2014-Nov-17 09:00N 29°36' W 063°43'0 0.0 1024.3 25.6
2014-Nov-17 08:00N 29°36' W 063°43'1 1.0 1024.0 25.6
2014-Nov-17 07:00N 29°36' W 063°41'1 1.0 1024.3 25.6
2014-Nov-17 06:00N 29°36' W 063°43'2 0.4 1024.5 25.6
2014-Nov-17 02:00N 29°36' W 063°41'1 1.2 1025.5 25.7
2014-Nov-17 01:00N 29°37' W 063°42'0 0.0 1025.5 -0.1
2014-Nov-16 23:00N 29°37' W 063°42'1 1.0 1025.1 25.7
2014-Nov-16 22:00N 29°37' W 063°41'1 0.5 1024.8 25.7
2014-Nov-16 21:00N 29°36' W 063°41'1 0.7 1024.4 25.7
2014-Nov-16 20:00N 29°35' W 063°41'0 0.0 1024.2 25.7
2014-Nov-16 18:00N 29°35' W 063°41'1 0.3 1024.0 25.7
2014-Nov-16 15:00N 29°35' W 063°40'1 0.5 1025.1 25.7
2014-Nov-16 14:00N 29°35' W 063°40'0 0.0 1025.1 25.7
2014-Nov-16 13:00N 29°35' W 063°40'1 0.5 1024.8 25.7
2014-Nov-16 11:00N 29°35' W 063°38'0 0.0 1023.3 25.7
2014-Nov-16 10:00N 29°35' W 063°38'1 0.8 1022.8 25.7
2014-Nov-16 09:00N 29°35' W 063°38'1 0.6 1022.1 25.7
2014-Nov-16 07:00N 29°35' W 063°37'1 0.2 1021.3 25.7
2014-Nov-16 02:00N 29°35' W 063°36'0 0.0 1020.5 25.8
2014-Nov-16 01:00N 29°35' W 063°36'0 0.0 1020.1 25.8
2014-Nov-15 23:00N 29°35' W 063°36'1 0.6 1018.9 25.8
2014-Nov-15 22:00N 29°35' W 063°35'0 0.0 1018.1 25.8
2014-Nov-15 21:00N 29°35' W 063°35'0 0.0 1017.7 25.8
2014-Nov-15 20:00N 29°35' W 063°35'0 0.0 1017.1 25.8
2014-Nov-15 19:00N 29°35' W 063°35'0 0.0 1016.8 25.8
2014-Nov-15 18:00N 29°35' W 063°35'0 0.0 1016.8 25.8
2014-Nov-15 15:00N 29°35' W 063°35'1 0.5 1018.1 25.8
2014-Nov-15 14:00N 29°35' W 063°35'1 0.2 1018.1 25.8
2014-Nov-15 11:00N 29°36' W 063°35'0 0.0 1016.3 25.8
2014-Nov-15 10:00N 29°36' W 063°35'0 0.0 1016.0 25.8
2014-Nov-15 09:00N 29°36' W 063°35'0 0.2 1015.2 25.8
2014-Nov-15 08:00N 29°36' W 063°35'1 1.1 1014.9 25.8
2014-Nov-15 07:00N 29°35' W 063°34'0 0.0 1014.9 25.8
2014-Nov-15 02:00N 29°35' W 063°34'0 0.0 1015.7 25.8
2014-Nov-15 01:00N 29°35' W 063°34'0 0.0 1015.6 25.8
2014-Nov-15 00:00N 29°35' W 063°34'1 0.8 1015.3 25.8
2014-Nov-14 23:00N 29°34' W 063°34'0 0.0 1014.8 25.9
2014-Nov-14 22:00N 29°34' W 063°34'1 0.5 1014.3 25.9
2014-Nov-14 21:00N 29°34' W 063°33'0 0.0 1013.7 26.0
2014-Nov-14 20:00N 29°34' W 063°33'0 0.0 1013.1 26.1
2014-Nov-14 19:00N 29°34' W 063°33'0 0.0 1012.7 26.1
2014-Nov-14 18:00N 29°34' W 063°33'0 0.1 1012.6 26.3
2014-Nov-14 15:00N 29°34' W 063°33'0 0.3 1014.1 26.0
2014-Nov-14 14:00N 29°34' W 063°32'0 0.3 1014.2 25.9
2014-Nov-14 13:00N 29°34' W 063°33'0 0.1 1014.0 25.8
2014-Nov-14 10:00N 29°34' W 063°32'1 0.6 1012.1 25.8
2014-Nov-14 09:00N 29°34' W 063°32'2 1.0 1011.7 25.8
2014-Nov-14 07:00N 29°32' W 063°31'0 0.0 1011.7 25.8
2014-Nov-14 06:00N 29°32' W 063°31'0 0.0 1011.8 25.8
2014-Nov-14 03:00N 29°32' W 063°31'1 0.8 1013.3 25.8
2014-Nov-14 02:00N 29°33' W 063°31'   1013.2 25.8
Track history (hours):
 
Tides and Currents Weather Stations Pressure Air Temp Water Temp Dewpoint Dewpoint Depression Visibility Wind Speed Wind Dir Waves Ship Positions

Drifting buoy 41936

Last reported at 2014-Nov-24 02:00 UTC. Time now 2014-Nov-24 08:21 UTC.
Position N 29°46' W 064°06'.

Barometer 1026.4 mb
Water temperature 25.2 ° C

Date/timePositionNaut miles runAvg speedWind from/ knotsBaromVisibWave heightAir tempDewpointWater temp
2014-Nov-24 02:00N 29°46' W 064°06'0 0.0 1026.4 25.2
2014-Nov-24 01:00N 29°46' W 064°06'0 0.0 1026.1 25.2
2014-Nov-24 00:00N 29°46' W 064°06'3 3.0 1025.7 25.2
2014-Nov-23 23:00N 29°44' W 064°03'0 0.5 1025.4 25.2
2014-Nov-23 22:00N 29°44' W 064°02'0 0.0 1024.9 25.2
2014-Nov-23 21:00N 29°44' W 064°02'1 1.0 1024.7 25.2
2014-Nov-23 20:00N 29°44' W 064°01'0 0.0 1024.9 25.2
2014-Nov-23 19:00N 29°44' W 064°01'0 0.0 1025.1 25.2
2014-Nov-23 18:00N 29°44' W 064°01'1 0.3 1025.7 25.2
2014-Nov-23 15:00N 29°45' W 064°01'1 1.0 1027.2 25.2
2014-Nov-23 14:00N 29°45' W 064°02'0 0.0 1027.6 25.2
2014-Nov-23 13:00N 29°45' W 064°02'0 0.0 1027.3 25.2
2014-Nov-23 12:00N 29°45' W 064°02'0 0.0 1026.9 25.2
2014-Nov-23 11:00N 29°45' W 064°02'1 0.8 1026.4 25.2
2014-Nov-23 10:00N 29°44' W 064°01'0 0.0 1026.1 25.2
2014-Nov-23 09:00N 29°44' W 064°01'0 0.2 1025.3 25.2
2014-Nov-23 08:00N 29°44' W 064°01'2 1.7 1025.2 25.2
2014-Nov-23 07:00N 29°43' W 064°01'0 0.0 1025.5 25.2
2014-Nov-23 06:00N 29°43' W 064°01'1 0.3 1025.5 25.2
2014-Nov-23 02:00N 29°41' W 064°00'1 0.5 1026.7 25.3
2014-Nov-23 01:00N 29°41' W 063°59'2 1.1 1026.5 25.3
2014-Nov-22 23:00N 29°41' W 063°57'1 0.5 1025.9 25.3
2014-Nov-22 21:00N 29°41' W 063°56'0 0.0 1025.5 25.4
2014-Nov-22 20:00N 29°41' W 063°56'1 0.6 1025.2 25.4
2014-Nov-22 19:00N 29°41' W 063°56'0 0.0 1025.0 25.4
2014-Nov-22 17:00N 29°41' W 063°56'2 1.7 1025.3 25.4
2014-Nov-22 16:00N 29°42' W 063°54'2 1.7 1024.0 -0.1
2014-Nov-22 15:00N 29°43' W 063°56'1 1.0 1026.1 25.4
2014-Nov-22 14:00N 29°43' W 063°57'1 0.2 1026.1 25.4
2014-Nov-22 11:00N 29°42' W 063°57'1 0.8 1023.8 25.3
2014-Nov-22 10:00N 29°43' W 063°56'0 0.1 1023.4 25.4
2014-Nov-22 09:00N 29°42' W 063°56'0 0.1 1023.0 25.4
2014-Nov-22 08:00N 29°43' W 063°56'0 0.0 1022.7 25.4
2014-Nov-22 07:00N 29°43' W 063°56'0 0.0 1022.5 25.4
2014-Nov-22 06:00N 29°43' W 063°56'0 0.4 1022.4 25.4
2014-Nov-22 05:00N 29°42' W 063°57'2 0.5 1023.1 25.4
2014-Nov-22 02:00N 29°41' W 063°55'3 2.7 1023.1 25.4
2014-Nov-22 01:00N 29°42' W 063°52'1 0.3 1022.8 25.4
2014-Nov-21 21:00N 29°43' W 063°52'0 0.0 1021.5 25.5
2014-Nov-21 19:00N 29°43' W 063°52'1 0.6 1020.0 25.5
2014-Nov-21 17:00N 29°44' W 063°50'2 0.8 1020.5 25.5
2014-Nov-21 15:00N 29°45' W 063°51'0 0.2 1021.3 25.4
2014-Nov-21 14:00N 29°46' W 063°51'1 0.8 1021.2 25.4
2014-Nov-21 13:00N 29°46' W 063°52'1 0.4 1020.6 25.4
2014-Nov-21 10:00N 29°45' W 063°52'1 1.2 1018.8 25.4
2014-Nov-21 09:00N 29°46' W 063°52'2 1.6 1018.2 25.4
2014-Nov-21 08:00N 29°45' W 063°51'0 0.0 1018.5 25.4
2014-Nov-21 07:00N 29°45' W 063°51'0 0.0 1018.7 25.5
2014-Nov-21 06:00N 29°45' W 063°51'0 0.0 1019.0 25.5
2014-Nov-21 05:00N 29°45' W 063°51'1 0.6 1019.0 25.5
2014-Nov-21 03:00N 29°44' W 063°50'1 0.5 1019.5 25.5
2014-Nov-21 02:00N 29°44' W 063°50'1 1.2 1019.6 25.5
2014-Nov-21 01:00N 29°44' W 063°49'1 0.5 1019.7 25.5
2014-Nov-21 00:00N 29°44' W 063°50'1 1.3 1019.7 25.5
2014-Nov-20 23:00N 29°44' W 063°48'0 0.3 1019.0 25.5
2014-Nov-20 22:00N 29°44' W 063°49'1 0.8 1018.6 25.5
2014-Nov-20 21:00N 29°45' W 063°49'1 0.5 1018.6 25.5
2014-Nov-20 19:00N 29°45' W 063°48'0 0.0 1018.5 25.5
2014-Nov-20 18:00N 29°45' W 063°48'0 0.2 1019.0 25.5
2014-Nov-20 17:00N 29°45' W 063°48'0 0.2 1019.5 25.5
2014-Nov-20 15:00N 29°45' W 063°49'0 0.0 1021.1 25.5
2014-Nov-20 14:00N 29°45' W 063°49'0 0.0 1021.2 25.5
2014-Nov-20 13:00N 29°45' W 063°49'2 0.5 1020.4 25.5
2014-Nov-20 10:00N 29°44' W 063°50'1 0.6 1018.7 25.5
2014-Nov-20 09:00N 29°43' W 063°50'1 0.8 1018.1 25.5
2014-Nov-20 08:00N 29°43' W 063°49'0 0.0 1018.0 25.5
2014-Nov-20 06:00N 29°43' W 063°49'2 0.4 1019.1 25.5
2014-Nov-20 02:00N 29°42' W 063°47'0 0.2 1020.0 25.5
2014-Nov-20 01:00N 29°42' W 063°47'1 0.7 1019.8 25.5
2014-Nov-20 00:00N 29°43' W 063°47'0 0.2 1019.9 25.5
2014-Nov-19 23:00N 29°43' W 063°47'1 0.5 1019.8 25.5
2014-Nov-19 22:00N 29°43' W 063°47'1 0.8 1019.4 25.5
2014-Nov-19 21:00N 29°43' W 063°46'0 0.0 1019.2 25.5
2014-Nov-19 20:00N 29°43' W 063°46'1 0.3 1018.7 25.6
2014-Nov-19 18:00N 29°43' W 063°47'0 0.0 1018.6 25.6
2014-Nov-19 17:00N 29°43' W 063°47'1 0.3 1019.0 25.5
2014-Nov-19 15:00N 29°43' W 063°47'0 0.0 1020.7 25.5
2014-Nov-19 14:00N 29°43' W 063°47'1 1.0 1021.2 25.5
2014-Nov-19 13:00N 29°43' W 063°49'0 0.0 1020.6 25.5
2014-Nov-19 11:00N 29°43' W 063°49'1 1.0 1019.5 25.5
2014-Nov-19 10:00N 29°42' W 063°49'0 0.3 1019.2 25.5
2014-Nov-19 09:00N 29°42' W 063°49'1 0.8 1019.0 25.5
2014-Nov-19 08:00N 29°41' W 063°48'0 0.0 1018.7 25.5
2014-Nov-19 07:00N 29°41' W 063°48'0 0.0 1018.9 25.5
2014-Nov-19 06:00N 29°41' W 063°48'2 0.5 1018.6 25.5
2014-Nov-19 03:00N 29°41' W 063°46'0 0.0 1019.3 25.5
2014-Nov-19 02:00N 29°41' W 063°46'1 0.8 1019.5 25.5
2014-Nov-19 01:00N 29°42' W 063°47'1 0.2 1019.8 25.6
2014-Nov-18 22:00N 29°41' W 063°47'1 0.6 1019.4 25.6
2014-Nov-18 21:00N 29°42' W 063°47'1 0.3 1019.4 25.6
2014-Nov-18 18:00N 29°42' W 063°48'0 0.1 1020.5 25.6
2014-Nov-18 15:00N 29°41' W 063°47'2 2.5 1022.0 25.6
2014-Nov-18 14:00N 29°39' W 063°48'0 0.1 1022.4 25.6
2014-Nov-18 13:00N 29°39' W 063°48'0 0.0 1022.3 25.6
2014-Nov-18 11:00N 29°39' W 063°48'1 1.0 1021.4 25.5
2014-Nov-18 10:00N 29°39' W 063°47'1 0.8 1021.0 25.5
2014-Nov-18 09:00N 29°38' W 063°46'0 0.0 1020.9 25.6
2014-Nov-18 07:00N 29°38' W 063°46'0 0.0 1020.5 25.6
2014-Nov-18 06:00N 29°38' W 063°46'1 0.3 1020.6 25.6
2014-Nov-18 02:00N 29°39' W 063°45'0 0.1 1022.7 25.6
2014-Nov-18 01:00N 29°39' W 063°45'1 0.6 1022.9 25.6
2014-Nov-18 00:00N 29°40' W 063°45'1 0.3 1023.1 25.6
2014-Nov-17 22:00N 29°39' W 063°45'2 0.6 1022.4 25.6
2014-Nov-17 18:00N 29°37' W 063°44'1 0.2 1023.0 25.7
2014-Nov-17 15:00N 29°37' W 063°45'0 0.0 1025.0 25.6
2014-Nov-17 14:00N 29°37' W 063°45'2 0.4 1025.3 25.6
2014-Nov-17 10:00N 29°36' W 063°43'1 0.5 1024.4 25.6
2014-Nov-17 09:00N 29°36' W 063°43'0 0.0 1024.3 25.6
2014-Nov-17 08:00N 29°36' W 063°43'1 1.0 1024.0 25.6
2014-Nov-17 07:00N 29°36' W 063°41'1 1.0 1024.3 25.6
2014-Nov-17 06:00N 29°36' W 063°43'2 0.4 1024.5 25.6
2014-Nov-17 02:00N 29°36' W 063°41'1 1.2 1025.5 25.7
2014-Nov-17 01:00N 29°37' W 063°42'0 0.0 1025.5 -0.1
2014-Nov-16 23:00N 29°37' W 063°42'1 1.0 1025.1 25.7
2014-Nov-16 22:00N 29°37' W 063°41'1 0.5 1024.8 25.7
2014-Nov-16 21:00N 29°36' W 063°41'1 0.7 1024.4 25.7
2014-Nov-16 20:00N 29°35' W 063°41'0 0.0 1024.2 25.7
2014-Nov-16 18:00N 29°35' W 063°41'1 0.3 1024.0 25.7
2014-Nov-16 15:00N 29°35' W 063°40'1 0.5 1025.1 25.7
2014-Nov-16 14:00N 29°35' W 063°40'0 0.0 1025.1 25.7
2014-Nov-16 13:00N 29°35' W 063°40'1 0.5 1024.8 25.7
2014-Nov-16 11:00N 29°35' W 063°38'0 0.0 1023.3 25.7
2014-Nov-16 10:00N 29°35' W 063°38'1 0.8 1022.8 25.7
2014-Nov-16 09:00N 29°35' W 063°38'1 0.6 1022.1 25.7
2014-Nov-16 07:00N 29°35' W 063°37'1 0.2 1021.3 25.7
2014-Nov-16 02:00N 29°35' W 063°36'0 0.0 1020.5 25.8
2014-Nov-16 01:00N 29°35' W 063°36'0 0.0 1020.1 25.8
2014-Nov-15 23:00N 29°35' W 063°36'1 0.6 1018.9 25.8
2014-Nov-15 22:00N 29°35' W 063°35'0 0.0 1018.1 25.8
2014-Nov-15 21:00N 29°35' W 063°35'0 0.0 1017.7 25.8
2014-Nov-15 20:00N 29°35' W 063°35'0 0.0 1017.1 25.8
2014-Nov-15 19:00N 29°35' W 063°35'0 0.0 1016.8 25.8
2014-Nov-15 18:00N 29°35' W 063°35'0 0.0 1016.8 25.8
2014-Nov-15 15:00N 29°35' W 063°35'1 0.5 1018.1 25.8
2014-Nov-15 14:00N 29°35' W 063°35'1 0.2 1018.1 25.8
2014-Nov-15 11:00N 29°36' W 063°35'0 0.0 1016.3 25.8
2014-Nov-15 10:00N 29°36' W 063°35'0 0.0 1016.0 25.8
2014-Nov-15 09:00N 29°36' W 063°35'0 0.2 1015.2 25.8
2014-Nov-15 08:00N 29°36' W 063°35'1 1.1 1014.9 25.8
2014-Nov-15 07:00N 29°35' W 063°34'0 0.0 1014.9 25.8
2014-Nov-15 02:00N 29°35' W 063°34'0 0.0 1015.7 25.8
2014-Nov-15 01:00N 29°35' W 063°34'0 0.0 1015.6 25.8
2014-Nov-15 00:00N 29°35' W 063°34'1 0.8 1015.3 25.8
2014-Nov-14 23:00N 29°34' W 063°34'0 0.0 1014.8 25.9
2014-Nov-14 22:00N 29°34' W 063°34'1 0.5 1014.3 25.9
2014-Nov-14 21:00N 29°34' W 063°33'0 0.0 1013.7 26.0
2014-Nov-14 20:00N 29°34' W 063°33'0 0.0 1013.1 26.1
2014-Nov-14 19:00N 29°34' W 063°33'0 0.0 1012.7 26.1
2014-Nov-14 18:00N 29°34' W 063°33'0 0.1 1012.6 26.3
2014-Nov-14 15:00N 29°34' W 063°33'0 0.3 1014.1 26.0
2014-Nov-14 14:00N 29°34' W 063°32'0 0.3 1014.2 25.9
2014-Nov-14 13:00N 29°34' W 063°33'0 0.1 1014.0 25.8
2014-Nov-14 10:00N 29°34' W 063°32'1 0.6 1012.1 25.8
2014-Nov-14 09:00N 29°34' W 063°32'2 1.0 1011.7 25.8
2014-Nov-14 07:00N 29°32' W 063°31'0 0.0 1011.7 25.8
2014-Nov-14 06:00N 29°32' W 063°31'0 0.0 1011.8 25.8
2014-Nov-14 03:00N 29°32' W 063°31'1 0.8 1013.3 25.8
2014-Nov-14 02:00N 29°33' W 063°31'   1013.2 25.8

Dump ship's entire track history